createdAt,value
2022-08-27T00:00:53.832Z,7.22
2022-08-27T00:03:22.948Z,6.17
2022-08-27T00:05:52.315Z,7.00
2022-08-27T00:08:21.412Z,8.07
2022-08-27T00:10:50.424Z,9.27
2022-08-27T00:13:19.522Z,7.10
2022-08-27T00:15:48.555Z,5.63
2022-08-27T00:18:22.575Z,5.72
2022-08-27T00:20:52.468Z,5.95
2022-08-27T00:23:21.514Z,4.38
2022-08-27T00:25:51.096Z,4.15
2022-08-27T00:28:20.258Z,5.13
2022-08-27T00:30:49.324Z,5.72
2022-08-27T00:33:21.577Z,4.22
2022-08-27T00:35:51.385Z,3.75
2022-08-27T00:38:21.987Z,5.43
2022-08-27T00:40:52.581Z,5.50
2022-08-27T00:43:24.058Z,3.80
2022-08-27T00:45:56.933Z,4.97
2022-08-27T00:48:31.119Z,4.47
2022-08-27T00:51:00.317Z,5.22
2022-08-27T00:53:33.368Z,3.67
2022-08-27T00:56:08.691Z,5.88
2022-08-27T00:58:39.710Z,5.30
2022-08-27T01:01:11.808Z,3.67
2022-08-27T01:03:46.306Z,4.47
2022-08-27T01:06:17.426Z,3.88
2022-08-27T01:08:52.229Z,3.05
2022-08-27T01:11:22.108Z,6.03
2022-08-27T01:13:59.999Z,5.75
2022-08-27T01:16:34.006Z,2.70
2022-08-27T01:19:07.395Z,4.75
2022-08-27T01:21:46.900Z,4.18
2022-08-27T01:24:38.829Z,4.70
2022-08-27T01:27:13.633Z,4.57
2022-08-27T01:29:44.056Z,6.85
2022-08-27T01:32:15.758Z,4.18
2022-08-27T01:34:46.008Z,6.00
2022-08-27T01:37:16.510Z,4.88
2022-08-27T01:39:55.331Z,6.68
2022-08-27T01:42:28.578Z,3.65
2022-08-27T01:44:59.650Z,5.15
2022-08-27T01:47:31.356Z,3.53
2022-08-27T01:50:00.752Z,4.32
2022-08-27T01:52:32.049Z,4.25
2022-08-27T01:55:02.841Z,5.03
2022-08-27T01:57:32.531Z,5.15
2022-08-27T02:00:03.125Z,4.55
2022-08-27T02:02:41.271Z,6.72
2022-08-27T02:05:10.942Z,5.70
2022-08-27T02:07:41.103Z,3.95
2022-08-27T02:10:17.957Z,5.20
2022-08-27T02:12:47.268Z,4.18
2022-08-27T02:15:16.409Z,6.03
2022-08-27T02:17:45.829Z,7.05
2022-08-27T02:20:16.061Z,3.25
2022-08-27T02:22:45.938Z,5.25
2022-08-27T02:25:19.627Z,4.35
2022-08-27T02:27:50.724Z,4.85
2022-08-27T02:30:23.086Z,4.78
2022-08-27T02:32:53.179Z,5.95
2022-08-27T02:35:24.988Z,7.68
2022-08-27T02:37:55.522Z,7.05
2022-08-27T02:40:26.494Z,4.03
2022-08-27T02:42:55.583Z,4.93
2022-08-27T02:45:24.747Z,4.28
2022-08-27T02:47:54.395Z,4.57
2022-08-27T02:50:27.345Z,5.57
2022-08-27T02:52:56.884Z,7.38
2022-08-27T02:55:28.014Z,5.53
2022-08-27T02:57:57.823Z,5.32
2022-08-27T03:00:28.875Z,5.15
2022-08-27T03:02:58.526Z,7.70
2022-08-27T03:05:28.313Z,5.32
2022-08-27T03:07:59.922Z,4.78
2022-08-27T03:10:30.946Z,6.03
2022-08-27T03:13:00.162Z,7.95
2022-08-27T03:15:29.321Z,4.30
2022-08-27T03:18:16.003Z,5.88
2022-08-27T03:20:46.634Z,6.90
2022-08-27T03:23:16.497Z,5.10
2022-08-27T03:25:49.336Z,6.55
2022-08-27T03:28:22.651Z,7.50
2022-08-27T03:30:54.142Z,8.18
2022-08-27T03:33:23.734Z,7.78
2022-08-27T03:35:52.830Z,6.13
2022-08-27T03:38:22.492Z,7.22
2022-08-27T03:40:53.877Z,6.20
2022-08-27T03:46:01.463Z,8.88
2022-08-27T03:48:35.215Z,7.50
2022-08-27T03:51:08.251Z,5.72
2022-08-27T03:53:38.061Z,5.65
2022-08-27T03:56:09.157Z,5.70
2022-08-27T03:58:39.025Z,5.45
2022-08-27T04:01:08.512Z,6.60
2022-08-27T04:03:37.676Z,6.53
2022-08-27T04:06:07.191Z,6.40
2022-08-27T04:08:36.397Z,6.53
2022-08-27T04:11:08.817Z,7.10
2022-08-27T04:13:38.362Z,6.38
2022-08-27T04:16:08.226Z,6.22
2022-08-27T04:18:37.389Z,8.18
2022-08-27T04:21:11.288Z,7.75
2022-08-27T04:23:41.259Z,5.70
2022-08-27T04:26:12.647Z,6.22
2022-08-27T04:28:42.227Z,7.72
2022-08-27T04:31:18.265Z,10.95
2022-08-27T04:33:51.365Z,7.13
2022-08-27T04:36:21.365Z,6.78
2022-08-27T04:38:50.980Z,7.25
2022-08-27T04:41:21.566Z,6.72
2022-08-27T04:43:52.288Z,10.15
2022-08-27T04:46:22.992Z,7.38
2022-08-27T04:48:52.220Z,6.05
2022-08-27T04:51:22.144Z,6.57
2022-08-27T04:53:51.668Z,7.93
2022-08-27T04:56:23.806Z,7.15
2022-08-27T04:58:53.628Z,6.07
2022-08-27T05:01:27.158Z,7.25
2022-08-27T05:03:56.732Z,9.10
2022-08-27T05:06:26.596Z,9.50
2022-08-27T05:08:56.123Z,8.15
2022-08-27T05:11:32.386Z,10.73
2022-08-27T05:14:04.124Z,11.13
2022-08-27T05:16:36.436Z,9.68
2022-08-27T05:19:08.481Z,7.88
2022-08-27T05:21:40.969Z,8.88
2022-08-27T05:24:10.085Z,9.85
2022-08-27T05:26:40.545Z,8.30
2022-08-27T05:29:09.777Z,11.40
2022-08-27T05:31:39.108Z,8.73
2022-08-27T05:34:10.260Z,7.15
2022-08-27T05:36:48.829Z,8.93
2022-08-27T05:39:18.671Z,10.13
2022-08-27T05:41:49.082Z,9.73
2022-08-27T05:44:40.260Z,7.22
2022-08-27T05:47:07.559Z,6.50
2022-08-27T05:49:36.656Z,6.40
2022-08-27T05:52:10.763Z,7.18
2022-08-27T05:54:40.123Z,8.13
2022-08-27T05:57:10.670Z,8.07
2022-08-27T05:59:57.064Z,8.60
2022-08-27T06:02:26.614Z,6.78
2022-08-27T06:04:55.883Z,8.45
2022-08-27T06:07:24.984Z,9.18
2022-08-27T06:09:54.069Z,9.60
2022-08-27T06:12:28.075Z,15.40
2022-08-27T06:14:57.770Z,12.05
2022-08-27T06:17:26.990Z,7.90
2022-08-27T06:19:56.262Z,10.63
2022-08-27T06:22:25.722Z,8.95
2022-08-27T06:24:54.874Z,9.00
2022-08-27T06:27:25.345Z,9.07
2022-08-27T06:29:54.524Z,12.77
2022-08-27T06:32:24.130Z,8.68
2022-08-27T06:34:53.234Z,10.23
2022-08-27T06:37:22.292Z,13.82
2022-08-27T06:39:51.687Z,8.18
2022-08-27T06:42:20.933Z,10.05
2022-08-27T06:44:56.357Z,8.40
2022-08-27T06:47:26.182Z,7.05
2022-08-27T06:49:55.600Z,6.82
2022-08-27T06:52:24.650Z,7.72
2022-08-27T06:54:53.677Z,7.18
2022-08-27T06:57:24.733Z,8.05
2022-08-27T06:59:55.182Z,5.63
2022-08-27T07:02:24.248Z,8.00
2022-08-27T07:04:54.751Z,6.78
2022-08-27T07:07:31.804Z,7.53
2022-08-27T07:10:06.166Z,9.57
2022-08-27T07:12:35.288Z,9.02
2022-08-27T07:15:06.645Z,10.00
2022-08-27T07:20:06.425Z,6.43
2022-08-27T07:22:35.525Z,8.27
2022-08-27T07:25:04.987Z,11.30
2022-08-27T07:27:34.112Z,9.10
2022-08-27T07:30:03.141Z,8.27
2022-08-27T07:32:34.166Z,7.30
2022-08-27T07:35:03.712Z,7.55
2022-08-27T07:37:35.011Z,11.77
2022-08-27T07:40:07.738Z,8.05
2022-08-27T07:42:54.250Z,8.52
2022-08-27T07:45:23.359Z,7.43
2022-08-27T07:47:54.093Z,11.02
2022-08-27T07:50:23.705Z,6.30
2022-08-27T07:52:53.195Z,4.78
2022-08-27T07:55:22.271Z,7.13
2022-08-27T07:57:51.309Z,7.05
2022-08-27T08:00:21.574Z,6.85
2022-08-27T08:02:51.122Z,8.18
2022-08-27T08:05:21.677Z,5.93
2022-08-27T08:07:52.093Z,4.37
2022-08-27T08:10:22.566Z,4.68
2022-08-27T08:12:52.133Z,6.57
2022-08-27T08:15:21.223Z,4.72
2022-08-27T08:17:50.264Z,7.15
2022-08-27T08:20:27.618Z,7.68
2022-08-27T08:23:06.447Z,4.72
2022-08-27T08:25:39.740Z,3.53
2022-08-27T08:28:08.944Z,5.93
2022-08-27T08:30:38.272Z,7.22
2022-08-27T08:33:07.389Z,5.45
2022-08-27T08:35:40.646Z,7.55
2022-08-27T08:38:11.768Z,2.63
2022-08-27T08:40:43.802Z,5.32
2022-08-27T08:43:27.996Z,8.10
2022-08-27T08:45:58.803Z,4.35
2022-08-27T08:48:30.759Z,1.85
2022-08-27T08:51:06.332Z,5.78
2022-08-27T08:53:47.306Z,5.90
2022-08-27T08:56:26.740Z,4.43
2022-08-27T08:59:02.990Z,5.10
2022-08-27T09:01:32.151Z,6.72
2022-08-27T09:04:04.601Z,4.57
2022-08-27T09:06:41.714Z,5.05
2022-08-27T09:09:21.614Z,6.05
2022-08-27T09:12:00.018Z,2.40
2022-08-27T09:14:37.134Z,3.53
2022-08-27T09:17:11.417Z,4.35
2022-08-27T09:19:41.621Z,3.13
2022-08-27T09:22:20.008Z,4.03
2022-08-27T09:25:01.717Z,4.63
2022-08-27T09:27:31.113Z,3.72
2022-08-27T09:30:00.164Z,4.20
2022-08-27T09:32:34.070Z,3.33
2022-08-27T09:35:06.132Z,4.57
2022-08-27T09:37:41.647Z,2.05
2022-08-27T09:40:23.089Z,4.57
2022-08-27T09:42:54.827Z,3.03
2022-08-27T09:45:26.898Z,4.18
2022-08-27T09:48:03.294Z,2.33
2022-08-27T09:50:40.627Z,6.07
2022-08-27T09:53:21.187Z,2.72
2022-08-27T09:55:56.198Z,3.38
2022-08-27T09:58:29.605Z,2.30
2022-08-27T10:01:05.298Z,3.03
2022-08-27T10:03:35.256Z,2.72
2022-08-27T10:06:04.386Z,6.35
2022-08-27T10:08:42.268Z,5.05
2022-08-27T10:11:19.652Z,2.72
2022-08-27T10:13:54.861Z,3.45
2022-08-27T10:16:43.865Z,4.22
2022-08-27T10:19:26.730Z,3.85
2022-08-27T10:22:01.879Z,4.22
2022-08-27T10:24:38.771Z,5.60
2022-08-27T10:27:17.297Z,4.43
2022-08-27T10:29:54.580Z,3.25
2022-08-27T10:32:45.115Z,3.65
2022-08-27T10:35:19.076Z,2.53
2022-08-27T10:37:59.459Z,3.65
2022-08-27T10:40:34.646Z,3.50
2022-08-27T10:43:18.832Z,5.50
2022-08-27T10:45:54.540Z,3.22
2022-08-27T10:48:30.522Z,3.88
2022-08-27T10:51:07.259Z,1.70
2022-08-27T10:53:43.226Z,6.07
2022-08-27T10:56:18.022Z,4.32
2022-08-27T10:59:00.577Z,5.03
2022-08-27T11:01:43.549Z,6.18
2022-08-27T11:04:19.494Z,2.72
2022-08-27T11:06:55.757Z,4.85
2022-08-27T11:09:35.686Z,3.58
2022-08-27T11:12:14.248Z,4.25
2022-08-27T11:14:52.456Z,3.38
2022-08-27T11:17:32.349Z,4.43
2022-08-27T11:20:08.501Z,1.33
2022-08-27T11:22:41.765Z,4.55
2022-08-27T11:25:20.622Z,4.28
2022-08-27T11:27:52.225Z,4.60
2022-08-27T11:30:29.279Z,4.20
2022-08-27T11:33:13.785Z,3.15
2022-08-27T11:35:59.417Z,3.13
2022-08-27T11:38:41.758Z,3.90
2022-08-27T11:41:45.069Z,2.78
2022-08-27T11:44:16.575Z,3.70
2022-08-27T11:46:48.848Z,6.85
2022-08-27T11:49:28.506Z,3.85
2022-08-27T11:52:00.902Z,3.92
2022-08-27T11:54:33.257Z,5.22
2022-08-27T11:57:02.406Z,6.90
2022-08-27T11:59:33.843Z,7.85
2022-08-27T12:02:26.180Z,6.85
2022-08-27T12:04:57.786Z,4.85
2022-08-27T12:07:31.945Z,8.05
2022-08-27T12:10:22.240Z,5.78
2022-08-27T12:13:11.300Z,4.22
2022-08-27T12:15:56.830Z,2.92
2022-08-27T12:18:59.175Z,3.13
2022-08-27T12:21:45.535Z,4.60
2022-08-27T12:24:37.907Z,6.38
2022-08-27T12:27:32.080Z,3.72
2022-08-27T12:30:04.467Z,7.90
2022-08-27T12:32:39.102Z,5.38
2022-08-27T12:35:15.825Z,2.25
2022-08-27T12:37:48.777Z,6.90
2022-08-27T12:40:28.986Z,4.05
2022-08-27T12:43:07.490Z,3.88
2022-08-27T12:45:46.779Z,4.07
2022-08-27T12:48:20.441Z,5.30
2022-08-27T12:50:55.944Z,3.53
2022-08-27T12:53:47.154Z,4.70
2022-08-27T12:56:42.280Z,6.50
2022-08-27T12:59:33.387Z,4.55
2022-08-27T13:02:15.024Z,5.82
2022-08-27T13:04:44.896Z,4.13
2022-08-27T13:07:15.510Z,4.75
2022-08-27T13:09:44.585Z,5.55
2022-08-27T13:12:19.762Z,3.40
2022-08-27T13:14:56.750Z,3.05
2022-08-27T13:17:26.699Z,5.63
2022-08-27T13:20:00.786Z,2.85
2022-08-27T13:22:38.712Z,5.80
2022-08-27T13:25:21.715Z,2.13
2022-08-27T13:27:56.188Z,1.90
2022-08-27T13:30:35.479Z,4.35
2022-08-27T13:33:07.669Z,3.13
2022-08-27T13:35:37.686Z,2.75
2022-08-27T13:38:08.247Z,1.83
2022-08-27T13:40:39.757Z,2.27
2022-08-27T13:43:12.464Z,3.28
2022-08-27T13:45:43.424Z,2.30
2022-08-27T13:48:13.834Z,3.05
2022-08-27T13:50:50.757Z,6.07
2022-08-27T13:53:43.176Z,3.33
2022-08-27T13:56:12.788Z,8.07
2022-08-27T13:58:41.809Z,5.07
2022-08-27T14:01:13.364Z,1.73
2022-08-27T14:03:50.360Z,3.80
2022-08-27T14:06:35.371Z,4.65
2022-08-27T14:09:19.001Z,5.53
2022-08-27T14:11:49.228Z,3.75
2022-08-27T14:14:19.856Z,5.50
2022-08-27T14:16:58.757Z,4.82
2022-08-27T14:19:36.124Z,3.60
2022-08-27T14:22:06.382Z,4.50
2022-08-27T14:24:36.833Z,2.05
2022-08-27T14:27:13.946Z,3.07
2022-08-27T14:29:43.062Z,3.55
2022-08-27T14:32:12.128Z,3.08
2022-08-27T14:34:41.290Z,2.90
2022-08-27T14:37:10.724Z,4.45
2022-08-27T14:39:43.383Z,5.53
2022-08-27T14:42:14.066Z,4.90
2022-08-27T14:44:43.077Z,3.10
2022-08-27T14:47:13.656Z,7.88
2022-08-27T14:49:45.899Z,6.67
2022-08-27T14:52:15.923Z,5.35
2022-08-27T14:54:46.592Z,4.55
2022-08-27T14:57:15.703Z,4.93
2022-08-27T14:59:44.776Z,6.05
2022-08-27T15:02:15.065Z,3.55
2022-08-27T15:04:47.243Z,3.83
2022-08-27T15:07:17.563Z,4.75
2022-08-27T15:09:48.850Z,3.30
2022-08-27T15:12:25.871Z,3.37
2022-08-27T15:14:56.296Z,4.55
2022-08-27T15:17:35.050Z,3.30
2022-08-27T15:20:07.995Z,3.75
2022-08-27T15:22:38.697Z,7.00
2022-08-27T15:25:16.562Z,3.63
2022-08-27T15:27:45.614Z,3.47
2022-08-27T15:30:26.930Z,3.17
2022-08-27T15:32:56.984Z,4.70
2022-08-27T15:35:28.212Z,3.85
2022-08-27T15:37:58.388Z,4.43
2022-08-27T15:40:32.315Z,3.75
2022-08-27T15:43:03.440Z,4.13
2022-08-27T15:45:33.170Z,3.70
2022-08-27T15:48:02.456Z,2.85
2022-08-27T15:50:31.934Z,3.67
2022-08-27T15:53:03.037Z,2.92
2022-08-27T15:55:36.430Z,3.20
2022-08-27T15:58:10.728Z,3.65
2022-08-27T16:00:41.283Z,3.90
2022-08-27T16:03:13.233Z,4.28
2022-08-27T16:05:44.856Z,3.88
2022-08-27T16:08:14.450Z,3.45
2022-08-27T16:10:44.977Z,3.17
2022-08-27T16:13:13.986Z,2.53
2022-08-27T16:15:43.348Z,5.10
2022-08-27T16:18:13.311Z,2.60
2022-08-27T16:20:42.874Z,3.45
2022-08-27T16:23:13.856Z,4.97
2022-08-27T16:25:44.336Z,4.15
2022-08-27T16:28:13.439Z,3.60
2022-08-27T16:30:43.464Z,4.10
2022-08-27T16:33:14.317Z,3.63
2022-08-27T16:35:43.705Z,5.20
2022-08-27T16:38:13.057Z,3.90
2022-08-27T16:40:46.082Z,3.38
2022-08-27T16:43:20.940Z,5.45
2022-08-27T16:45:50.685Z,6.05
2022-08-27T16:48:37.937Z,4.40
2022-08-27T16:51:09.237Z,3.20
2022-08-27T16:53:41.716Z,5.07
2022-08-27T16:56:12.198Z,7.93
2022-08-27T16:58:43.909Z,3.15
2022-08-27T17:01:15.202Z,5.82
2022-08-27T17:06:35.279Z,4.47
2022-08-27T17:09:08.914Z,5.60
2022-08-27T17:11:42.005Z,2.63
2022-08-27T17:14:12.457Z,1.70
2022-08-27T17:16:43.437Z,5.10
2022-08-27T17:19:13.313Z,6.57
2022-08-27T17:21:46.701Z,6.13
2022-08-27T17:24:15.931Z,4.55
2022-08-27T17:26:46.520Z,4.97
2022-08-27T17:29:15.803Z,5.63
2022-08-27T17:31:44.874Z,4.82
2022-08-27T17:34:17.932Z,3.67
2022-08-27T17:36:47.344Z,5.15
2022-08-27T17:39:17.151Z,3.58
2022-08-27T17:41:49.887Z,3.78
2022-08-27T17:44:24.527Z,3.63
2022-08-27T17:46:54.996Z,3.55
2022-08-27T17:49:26.820Z,5.30
2022-08-27T17:51:59.868Z,3.25
2022-08-27T17:54:32.528Z,4.90
2022-08-27T17:57:04.052Z,2.00
2022-08-27T17:59:33.298Z,3.58
2022-08-27T18:02:02.601Z,3.60
2022-08-27T18:04:33.007Z,5.22
2022-08-27T18:07:02.254Z,4.40
2022-08-27T18:09:31.275Z,3.33
2022-08-27T18:12:02.036Z,3.17
2022-08-27T18:14:31.280Z,2.33
2022-08-27T18:17:00.439Z,3.88
2022-08-27T18:19:29.904Z,3.67
2022-08-27T18:21:59.242Z,4.03
2022-08-27T18:24:29.727Z,5.77
2022-08-27T18:26:58.994Z,3.95
2022-08-27T18:29:29.953Z,3.13
2022-08-27T18:31:58.989Z,4.13
2022-08-27T18:34:29.141Z,2.63
2022-08-27T18:36:58.145Z,3.17
2022-08-27T18:39:27.871Z,3.25
2022-08-27T18:41:57.041Z,5.03
2022-08-27T18:44:26.299Z,3.22
2022-08-27T18:46:56.784Z,6.07
2022-08-27T18:49:26.785Z,5.85
2022-08-27T18:51:56.281Z,3.15
2022-08-27T18:54:27.392Z,4.97
2022-08-27T18:56:58.237Z,7.22
2022-08-27T18:59:27.485Z,3.17
2022-08-27T19:01:58.164Z,5.03
2022-08-27T19:04:27.840Z,5.45
2022-08-27T19:06:56.907Z,5.03
2022-08-27T19:09:26.341Z,7.70
2022-08-27T19:11:55.525Z,3.13
2022-08-27T19:14:24.715Z,4.88
2022-08-27T19:16:56.142Z,3.78
2022-08-27T19:19:27.585Z,5.03
2022-08-27T19:24:30.061Z,6.60
2022-08-27T19:27:06.265Z,3.65
2022-08-27T19:29:35.377Z,6.90
2022-08-27T19:32:04.682Z,4.32
2022-08-27T19:34:35.258Z,4.20
2022-08-27T19:37:06.240Z,5.37
2022-08-27T19:39:38.354Z,5.85
2022-08-27T19:42:07.998Z,6.07
2022-08-27T19:44:37.219Z,6.13
2022-08-27T19:47:08.431Z,10.55
2022-08-27T19:49:40.269Z,7.40
2022-08-27T19:52:09.709Z,8.63
2022-08-27T19:54:56.870Z,6.80
2022-08-27T19:57:28.176Z,6.80
2022-08-27T19:59:57.306Z,5.90
2022-08-27T20:02:26.990Z,5.75
2022-08-27T20:05:17.091Z,4.13
2022-08-27T20:07:46.753Z,6.70
2022-08-27T20:10:16.716Z,5.97
2022-08-27T20:12:45.950Z,5.57
2022-08-27T20:15:15.193Z,5.13
2022-08-27T20:17:45.390Z,6.00
2022-08-27T20:20:17.550Z,7.55
2022-08-27T20:22:46.669Z,4.90
2022-08-27T20:25:15.917Z,5.45
2022-08-27T20:27:45.005Z,8.52
2022-08-27T20:30:15.220Z,7.05
2022-08-27T20:32:46.799Z,7.05
2022-08-27T20:35:18.556Z,7.65
2022-08-27T20:37:47.984Z,5.93
2022-08-27T20:40:19.579Z,5.97
2022-08-27T20:42:48.760Z,8.18
2022-08-27T20:45:18.931Z,4.32
2022-08-27T20:47:50.670Z,6.22
2022-08-27T20:50:22.456Z,4.68
2022-08-27T20:52:52.416Z,5.93
2022-08-27T20:55:23.758Z,5.30
2022-08-27T21:00:41.825Z,6.60
2022-08-27T21:03:12.702Z,6.07
2022-08-27T21:05:47.134Z,4.60
2022-08-27T21:08:17.474Z,6.18
2022-08-27T21:10:49.772Z,5.93
2022-08-27T21:13:19.625Z,7.45
2022-08-27T21:15:50.069Z,7.30
2022-08-27T21:18:29.901Z,6.05
2022-08-27T21:21:01.080Z,7.25
2022-08-27T21:23:30.922Z,4.82
2022-08-27T21:26:02.583Z,6.85
2022-08-27T21:28:31.736Z,5.82
2022-08-27T21:31:00.803Z,5.57
2022-08-27T21:33:29.890Z,5.05
2022-08-27T21:36:00.478Z,5.95
2022-08-27T21:38:30.033Z,6.65
2022-08-27T21:40:59.174Z,4.82
2022-08-27T21:43:28.379Z,3.55
2022-08-27T21:45:58.767Z,3.00
2022-08-27T21:48:28.514Z,4.75
2022-08-27T21:50:57.797Z,6.40
2022-08-27T21:53:28.209Z,4.07
2022-08-27T21:55:57.414Z,6.30
2022-08-27T21:58:26.873Z,3.72
2022-08-27T22:00:56.444Z,4.22
2022-08-27T22:03:26.285Z,3.47
2022-08-27T22:05:55.439Z,2.40
2022-08-27T22:08:24.823Z,5.13
2022-08-27T22:10:58.788Z,2.60
2022-08-27T22:13:28.521Z,3.95
2022-08-27T22:15:57.672Z,4.05
2022-08-27T22:18:26.863Z,4.28
2022-08-27T22:20:58.891Z,4.82
2022-08-27T22:23:28.928Z,5.50
2022-08-27T22:25:59.626Z,6.13
2022-08-27T22:28:29.263Z,4.32
2022-08-27T22:30:58.486Z,4.03
2022-08-27T22:33:27.857Z,4.68
2022-08-27T22:35:57.008Z,4.80
2022-08-27T22:38:26.250Z,5.05
2022-08-27T22:40:55.561Z,3.53
2022-08-27T22:43:26.065Z,3.10
2022-08-27T22:45:55.074Z,2.13
2022-08-27T22:48:24.124Z,2.40
2022-08-27T22:50:53.217Z,5.60
2022-08-27T22:53:22.343Z,4.07
2022-08-27T22:55:51.368Z,2.55
2022-08-27T22:58:24.441Z,5.28
2022-08-27T23:00:55.123Z,2.08
2022-08-27T23:03:24.226Z,4.27
2022-08-27T23:05:53.385Z,4.40
2022-08-27T23:08:23.110Z,5.32
2022-08-27T23:10:53.291Z,4.35
2022-08-27T23:13:23.467Z,5.32
2022-08-27T23:15:52.834Z,5.55
2022-08-27T23:18:23.266Z,5.53
2022-08-27T23:20:52.641Z,5.07
2022-08-27T23:23:21.762Z,5.40
2022-08-27T23:26:11.156Z,7.70
2022-08-27T23:28:40.569Z,7.63
2022-08-27T23:31:09.674Z,4.55
2022-08-27T23:33:40.542Z,8.05
2022-08-27T23:36:10.468Z,6.30
2022-08-27T23:38:39.649Z,5.75
2022-08-27T23:41:09.160Z,7.38
2022-08-27T23:43:38.196Z,4.65
2022-08-27T23:46:07.239Z,4.75
2022-08-27T23:48:36.442Z,4.50
2022-08-27T23:51:07.317Z,2.97
2022-08-27T23:53:36.527Z,6.20
2022-08-27T23:56:06.116Z,4.45
2022-08-27T23:58:35.165Z,3.55
